sensor_id;sensor_type;location;lat;lon;timestamp;pressure;altitude;pressure_sealevel;temperature;humidity
35694;BME280;21812;55.536;37.664;2024-01-16T00:00:35;97388.56;;;-0.58;74.71
35694;BME280;21812;55.536;37.664;2024-01-16T00:03:00;97394.34;;;-0.63;74.28
35694;BME280;21812;55.536;37.664;2024-01-16T00:05:26;97400.56;;;-0.64;74.42
35694;BME280;21812;55.536;37.664;2024-01-16T00:07:52;97393.88;;;-0.66;74.75
35694;BME280;21812;55.536;37.664;2024-01-16T00:10:17;97386.53;;;-0.71;74.47
35694;BME280;21812;55.536;37.664;2024-01-16T00:12:43;97380.25;;;-0.85;74.70
35694;BME280;21812;55.536;37.664;2024-01-16T00:15:09;97400.50;;;-0.79;75.16
35694;BME280;21812;55.536;37.664;2024-01-16T00:17:35;97389.56;;;-0.82;74.94
35694;BME280;21812;55.536;37.664;2024-01-16T00:20:01;97380.38;;;-0.78;75.10
35694;BME280;21812;55.536;37.664;2024-01-16T00:22:29;97387.41;;;-0.79;74.96
35694;BME280;21812;55.536;37.664;2024-01-16T00:24:55;97391.31;;;-0.74;74.99
35694;BME280;21812;55.536;37.664;2024-01-16T00:27:21;97388.03;;;-0.76;75.03
35694;BME280;21812;55.536;37.664;2024-01-16T00:29:47;97392.25;;;-0.67;74.75
35694;BME280;21812;55.536;37.664;2024-01-16T00:32:13;97393.41;;;-0.70;74.94
35694;BME280;21812;55.536;37.664;2024-01-16T00:34:42;97384.06;;;-0.72;74.68
35694;BME280;21812;55.536;37.664;2024-01-16T00:37:08;97388.97;;;-0.69;74.67
35694;BME280;21812;55.536;37.664;2024-01-16T00:39:34;97396.22;;;-0.71;74.67
35694;BME280;21812;55.536;37.664;2024-01-16T00:42:01;97366.28;;;-0.77;74.95
35694;BME280;21812;55.536;37.664;2024-01-16T00:44:27;97394.44;;;-0.56;74.53
35694;BME280;21812;55.536;37.664;2024-01-16T00:46:53;97391.09;;;-0.65;73.84
35694;BME280;21812;55.536;37.664;2024-01-16T00:49:19;97391.91;;;-0.64;74.35
35694;BME280;21812;55.536;37.664;2024-01-16T00:51:45;97392.25;;;-0.67;73.98
35694;BME280;21812;55.536;37.664;2024-01-16T00:54:11;97389.16;;;-0.71;74.05
35694;BME280;21812;55.536;37.664;2024-01-16T00:56:37;97386.53;;;-0.71;74.17
35694;BME280;21812;55.536;37.664;2024-01-16T00:59:03;97390.78;;;-0.70;74.21
35694;BME280;21812;55.536;37.664;2024-01-16T01:01:28;97380.38;;;-0.78;74.15
35694;BME280;21812;55.536;37.664;2024-01-16T01:03:54;97381.03;;;-0.76;74.15
35694;BME280;21812;55.536;37.664;2024-01-16T01:06:20;97387.22;;;-0.54;74.15
35694;BME280;21812;55.536;37.664;2024-01-16T01:08:46;97377.66;;;-0.47;73.53
35694;BME280;21812;55.536;37.664;2024-01-16T01:11:12;97375.78;;;-0.38;72.81
35694;BME280;21812;55.536;37.664;2024-01-16T01:13:38;97382.44;;;-0.50;72.63
35694;BME280;21812;55.536;37.664;2024-01-16T01:16:04;97357.91;;;-0.57;72.82
35694;BME280;21812;55.536;37.664;2024-01-16T01:18:30;97380.44;;;-0.48;72.47
35694;BME280;21812;55.536;37.664;2024-01-16T01:20:55;97372.75;;;-0.65;72.07
35694;BME280;21812;55.536;37.664;2024-01-16T01:23:21;97371.63;;;-0.70;72.81
35694;BME280;21812;55.536;37.664;2024-01-16T01:25:47;97377.16;;;-0.65;73.00
35694;BME280;21812;55.536;37.664;2024-01-16T01:28:13;97373.53;;;-0.64;72.77
35694;BME280;21812;55.536;37.664;2024-01-16T01:30:39;97353.63;;;-0.73;72.31
35694;BME280;21812;55.536;37.664;2024-01-16T01:33:04;97377.22;;;-0.73;72.86
35694;BME280;21812;55.536;37.664;2024-01-16T01:35:30;97379.94;;;-0.67;73.11
35694;BME280;21812;55.536;37.664;2024-01-16T01:37:56;97378.78;;;-0.64;72.71
35694;BME280;21812;55.536;37.664;2024-01-16T01:40:22;97368.59;;;-0.59;72.72
35694;BME280;21812;55.536;37.664;2024-01-16T01:42:48;97353.56;;;-0.65;72.53
35694;BME280;21812;55.536;37.664;2024-01-16T01:45:14;97360.06;;;-0.61;72.46
35694;BME280;21812;55.536;37.664;2024-01-16T01:47:41;97382.16;;;-0.55;72.55
35694;BME280;21812;55.536;37.664;2024-01-16T01:50:09;97371.84;;;-0.57;72.22
35694;BME280;21812;55.536;37.664;2024-01-16T01:52:38;97343.78;;;-0.71;72.19
35694;BME280;21812;55.536;37.664;2024-01-16T01:55:07;97333.16;;;-0.93;71.77
35694;BME280;21812;55.536;37.664;2024-01-16T01:57:36;97365.50;;;-0.63;72.33
35694;BME280;21812;55.536;37.664;2024-01-16T02:00:02;97360.44;;;-0.64;72.04
35694;BME280;21812;55.536;37.664;2024-01-16T02:02:41;97337.63;;;-0.79;72.01
35694;BME280;21812;55.536;37.664;2024-01-16T02:05:07;97364.69;;;-0.63;71.75
35694;BME280;21812;55.536;37.664;2024-01-16T02:07:33;97340.59;;;-0.82;71.79
35694;BME280;21812;55.536;37.664;2024-01-16T02:10:00;97363.09;;;-0.72;72.21
35694;BME280;21812;55.536;37.664;2024-01-16T02:12:26;97370.16;;;-0.73;72.19
35694;BME280;21812;55.536;37.664;2024-01-16T02:14:52;97385.84;;;-0.65;72.32
35694;BME280;21812;55.536;37.664;2024-01-16T02:17:18;97376.91;;;-0.55;72.06
35694;BME280;21812;55.536;37.664;2024-01-16T02:19:44;97379.34;;;-0.54;71.73
35694;BME280;21812;55.536;37.664;2024-01-16T02:22:16;97374.75;;;-0.52;71.65
35694;BME280;21812;55.536;37.664;2024-01-16T02:24:45;97374.19;;;-0.62;71.62
35694;BME280;21812;55.536;37.664;2024-01-16T02:27:10;97378.41;;;-0.76;72.03
35694;BME280;21812;55.536;37.664;2024-01-16T02:29:43;97376.59;;;-0.75;72.61
35694;BME280;21812;55.536;37.664;2024-01-16T02:32:11;97353.34;;;-1.02;73.09
35694;BME280;21812;55.536;37.664;2024-01-16T02:34:38;97387.00;;;-0.90;73.43
35694;BME280;21812;55.536;37.664;2024-01-16T02:37:04;97363.81;;;-1.02;73.57
35694;BME280;21812;55.536;37.664;2024-01-16T02:39:29;97381.06;;;-0.84;73.52
35694;BME280;21812;55.536;37.664;2024-01-16T02:41:56;97386.66;;;-0.87;73.14
35694;BME280;21812;55.536;37.664;2024-01-16T02:44:22;97371.63;;;-0.93;73.44
35694;BME280;21812;55.536;37.664;2024-01-16T02:46:48;97372.47;;;-0.93;73.47
35694;BME280;21812;55.536;37.664;2024-01-16T02:49:13;97387.94;;;-0.83;73.47
35694;BME280;21812;55.536;37.664;2024-01-16T02:51:39;97388.09;;;-0.85;73.60
35694;BME280;21812;55.536;37.664;2024-01-16T02:54:06;97370.97;;;-0.95;73.41
35694;BME280;21812;55.536;37.664;2024-01-16T02:56:33;97393.28;;;-0.76;73.31
35694;BME280;21812;55.536;37.664;2024-01-16T02:58:58;97392.38;;;-0.84;73.01
35694;BME280;21812;55.536;37.664;2024-01-16T03:01:24;97394.31;;;-0.86;73.43
35694;BME280;21812;55.536;37.664;2024-01-16T03:03:49;97383.03;;;-0.86;73.90
35694;BME280;21812;55.536;37.664;2024-01-16T03:06:25;97383.97;;;-1.02;73.80
35694;BME280;21812;55.536;37.664;2024-01-16T03:08:51;97384.78;;;-1.02;73.85
35694;BME280;21812;55.536;37.664;2024-01-16T03:11:17;97379.59;;;-1.10;73.35
35694;BME280;21812;55.536;37.664;2024-01-16T03:13:43;97388.78;;;-1.14;73.79
35694;BME280;21812;55.536;37.664;2024-01-16T03:16:11;97395.47;;;-1.11;73.97
35694;BME280;21812;55.536;37.664;2024-01-16T03:18:37;97380.50;;;-1.26;73.84
35694;BME280;21812;55.536;37.664;2024-01-16T03:21:05;97304.88;;;-1.83;74.03
35694;BME280;21812;55.536;37.664;2024-01-16T03:23:31;97382.84;;;-1.39;74.75
35694;BME280;21812;55.536;37.664;2024-01-16T03:25:57;97393.69;;;-1.42;74.57
35694;BME280;21812;55.536;37.664;2024-01-16T03:28:23;97397.91;;;-1.41;74.88
35694;BME280;21812;55.536;37.664;2024-01-16T03:30:48;97399.13;;;-1.21;74.55
35694;BME280;21812;55.536;37.664;2024-01-16T03:33:14;97393.25;;;-1.23;74.36
35694;BME280;21812;55.536;37.664;2024-01-16T03:35:40;97394.19;;;-1.15;74.39
35694;BME280;21812;55.536;37.664;2024-01-16T03:38:05;97393.84;;;-1.12;73.91
35694;BME280;21812;55.536;37.664;2024-01-16T03:40:31;97373.59;;;-1.19;73.56
35694;BME280;21812;55.536;37.664;2024-01-16T03:43:00;97385.94;;;-1.04;73.17
35694;BME280;21812;55.536;37.664;2024-01-16T03:45:26;97397.00;;;-0.94;73.04
35694;BME280;21812;55.536;37.664;2024-01-16T03:47:51;97390.81;;;-1.01;72.62
35694;BME280;21812;55.536;37.664;2024-01-16T03:50:17;97392.41;;;-0.92;72.78
35694;BME280;21812;55.536;37.664;2024-01-16T03:52:43;97385.59;;;-1.01;72.45
35694;BME280;21812;55.536;37.664;2024-01-16T03:55:08;97369.88;;;-1.01;72.25
35694;BME280;21812;55.536;37.664;2024-01-16T03:57:34;97390.44;;;-0.90;72.74
35694;BME280;21812;55.536;37.664;2024-01-16T04:00:00;97392.25;;;-0.90;72.53
35694;BME280;21812;55.536;37.664;2024-01-16T04:02:26;97382.94;;;-0.93;72.37
35694;BME280;21812;55.536;37.664;2024-01-16T04:04:52;97363.47;;;-1.22;72.65
35694;BME280;21812;55.536;37.664;2024-01-16T04:07:17;97385.59;;;-1.01;72.98
35694;BME280;21812;55.536;37.664;2024-01-16T04:09:43;97390.16;;;-0.95;72.55
35694;BME280;21812;55.536;37.664;2024-01-16T04:12:09;97381.19;;;-1.01;72.33
35694;BME280;21812;55.536;37.664;2024-01-16T04:14:35;97369.44;;;-1.05;72.55
35694;BME280;21812;55.536;37.664;2024-01-16T04:17:01;97370.34;;;-0.98;72.57
35694;BME280;21812;55.536;37.664;2024-01-16T04:19:27;97369.94;;;-1.09;72.69
35694;BME280;21812;55.536;37.664;2024-01-16T04:21:53;97378.13;;;-1.12;72.60
35694;BME280;21812;55.536;37.664;2024-01-16T04:24:19;97378.78;;;-1.10;72.66
35694;BME280;21812;55.536;37.664;2024-01-16T04:26:45;97376.84;;;-1.16;72.50
35694;BME280;21812;55.536;37.664;2024-01-16T04:29:11;97386.41;;;-1.24;72.72
35694;BME280;21812;55.536;37.664;2024-01-16T04:31:41;97390.81;;;-1.24;72.78
35694;BME280;21812;55.536;37.664;2024-01-16T04:34:07;97389.03;;;-1.32;72.53
35694;BME280;21812;55.536;37.664;2024-01-16T04:36:33;97386.31;;;-1.39;73.42
35694;BME280;21812;55.536;37.664;2024-01-16T04:38:59;97393.41;;;-1.24;72.94
35694;BME280;21812;55.536;37.664;2024-01-16T04:41:25;97401.16;;;-1.31;72.44
35694;BME280;21812;55.536;37.664;2024-01-16T04:43:50;97397.53;;;-1.30;73.06
35694;BME280;21812;55.536;37.664;2024-01-16T04:46:16;97405.38;;;-1.22;72.86
35694;BME280;21812;55.536;37.664;2024-01-16T04:48:42;97408.63;;;-1.20;72.75
35694;BME280;21812;55.536;37.664;2024-01-16T04:51:08;97391.00;;;-1.34;72.76
35694;BME280;21812;55.536;37.664;2024-01-16T04:53:34;97393.47;;;-1.32;72.40
35694;BME280;21812;55.536;37.664;2024-01-16T04:55:59;97408.00;;;-1.30;72.50
35694;BME280;21812;55.536;37.664;2024-01-16T04:58:25;97403.13;;;-1.33;72.84
35694;BME280;21812;55.536;37.664;2024-01-16T05:00:51;97410.94;;;-1.25;72.53
35694;BME280;21812;55.536;37.664;2024-01-16T05:03:17;97419.13;;;-1.28;72.76
35694;BME280;21812;55.536;37.664;2024-01-16T05:05:42;97402.50;;;-1.35;72.35
35694;BME280;21812;55.536;37.664;2024-01-16T05:08:08;97409.00;;;-1.31;72.37
35694;BME280;21812;55.536;37.664;2024-01-16T05:10:34;97411.63;;;-1.31;72.46
35694;BME280;21812;55.536;37.664;2024-01-16T05:13:00;97379.31;;;-1.46;72.60
35694;BME280;21812;55.536;37.664;2024-01-16T05:15:26;97412.44;;;-1.30;72.10
35694;BME280;21812;55.536;37.664;2024-01-16T05:17:52;97409.91;;;-1.15;72.26
35694;BME280;21812;55.536;37.664;2024-01-16T05:20:18;97411.84;;;-1.09;71.45
35694;BME280;21812;55.536;37.664;2024-01-16T05:22:44;97403.19;;;-1.10;71.17
35694;BME280;21812;55.536;37.664;2024-01-16T05:25:10;97402.06;;;-1.15;71.28
35694;BME280;21812;55.536;37.664;2024-01-16T05:27:36;97417.38;;;-1.04;71.29
35694;BME280;21812;55.536;37.664;2024-01-16T05:30:01;97407.25;;;-1.07;71.20
35694;BME280;21812;55.536;37.664;2024-01-16T05:32:28;97410.72;;;-1.15;70.98
35694;BME280;21812;55.536;37.664;2024-01-16T05:34:53;97406.81;;;-1.19;71.02
35694;BME280;21812;55.536;37.664;2024-01-16T05:37:19;97421.47;;;-1.02;71.12
35694;BME280;21812;55.536;37.664;2024-01-16T05:39:45;97414.59;;;-1.03;70.55
35694;BME280;21812;55.536;37.664;2024-01-16T05:42:11;97412.16;;;-1.04;70.75
35694;BME280;21812;55.536;37.664;2024-01-16T05:44:37;97376.41;;;-1.28;70.79
35694;BME280;21812;55.536;37.664;2024-01-16T05:47:04;97400.25;;;-1.15;71.05
35694;BME280;21812;55.536;37.664;2024-01-16T05:49:31;97406.28;;;-1.14;71.19
35694;BME280;21812;55.536;37.664;2024-01-16T05:51:57;97398.16;;;-1.20;71.06
35694;BME280;21812;55.536;37.664;2024-01-16T05:54:23;97391.63;;;-1.24;70.97
35694;BME280;21812;55.536;37.664;2024-01-16T05:56:49;97383.78;;;-1.24;71.11
35694;BME280;21812;55.536;37.664;2024-01-16T05:59:15;97389.34;;;-1.27;70.90
35694;BME280;21812;55.536;37.664;2024-01-16T06:01:41;97386.84;;;-1.20;71.24
35694;BME280;21812;55.536;37.664;2024-01-16T06:04:07;97391.97;;;-1.27;71.11
35694;BME280;21812;55.536;37.664;2024-01-16T06:06:33;97421.91;;;-1.21;71.29
35694;BME280;21812;55.536;37.664;2024-01-16T06:08:58;97421.09;;;-1.30;71.32
35694;BME280;21812;55.536;37.664;2024-01-16T06:11:33;97437.47;;;-1.28;71.63
35694;BME280;21812;55.536;37.664;2024-01-16T06:14:00;97423.78;;;-1.38;71.62
35694;BME280;21812;55.536;37.664;2024-01-16T06:16:26;97434.69;;;-1.26;71.83
35694;BME280;21812;55.536;37.664;2024-01-16T06:18:52;97423.88;;;-1.23;71.71
35694;BME280;21812;55.536;37.664;2024-01-16T06:21:18;97405.88;;;-1.26;71.50
35694;BME280;21812;55.536;37.664;2024-01-16T06:23:43;97409.59;;;-1.21;71.52
35694;BME280;21812;55.536;37.664;2024-01-16T06:26:10;97406.69;;;-1.26;71.38
35694;BME280;21812;55.536;37.664;2024-01-16T06:28:36;97407.69;;;-1.27;71.80
35694;BME280;21812;55.536;37.664;2024-01-16T06:31:01;97408.38;;;-1.33;72.14
35694;BME280;21812;55.536;37.664;2024-01-16T06:33:27;97418.69;;;-1.40;72.56
35694;BME280;21812;55.536;37.664;2024-01-16T06:35:56;97426.19;;;-1.28;72.81
35694;BME280;21812;55.536;37.664;2024-01-16T06:38:22;97415.84;;;-1.22;72.93
35694;BME280;21812;55.536;37.664;2024-01-16T06:40:47;97415.84;;;-1.22;72.35
35694;BME280;21812;55.536;37.664;2024-01-16T06:43:14;97411.00;;;-1.33;72.58
35694;BME280;21812;55.536;37.664;2024-01-16T06:45:44;97421.16;;;-1.38;73.26
35694;BME280;21812;55.536;37.664;2024-01-16T06:48:10;97416.59;;;-1.44;73.04
35694;BME280;21812;55.536;37.664;2024-01-16T06:50:36;97420.56;;;-1.48;72.79
35694;BME280;21812;55.536;37.664;2024-01-16T06:53:02;97422.69;;;-1.52;72.89
35694;BME280;21812;55.536;37.664;2024-01-16T06:55:28;97389.22;;;-1.73;73.73
35694;BME280;21812;55.536;37.664;2024-01-16T06:57:53;97413.97;;;-1.44;73.15
35694;BME280;21812;55.536;37.664;2024-01-16T07:00:19;97385.78;;;-1.65;73.08
35694;BME280;21812;55.536;37.664;2024-01-16T07:02:45;97431.78;;;-1.31;72.52
35694;BME280;21812;55.536;37.664;2024-01-16T07:05:12;97389.88;;;-1.71;72.38
35694;BME280;21812;55.536;37.664;2024-01-16T07:07:38;97437.03;;;-1.40;72.72
35694;BME280;21812;55.536;37.664;2024-01-16T07:10:04;97447.59;;;-1.25;72.28
35694;BME280;21812;55.536;37.664;2024-01-16T07:12:34;97446.59;;;-1.15;72.15
35694;BME280;21812;55.536;37.664;2024-01-16T07:15:00;97432.84;;;-1.17;71.53
35694;BME280;21812;55.536;37.664;2024-01-16T07:17:26;97449.53;;;-1.19;71.18
35694;BME280;21812;55.536;37.664;2024-01-16T07:19:51;97441.69;;;-1.19;71.65
35694;BME280;21812;55.536;37.664;2024-01-16T07:22:17;97434.47;;;-1.16;71.45
35694;BME280;21812;55.536;37.664;2024-01-16T07:24:42;97425.38;;;-1.29;70.87
35694;BME280;21812;55.536;37.664;2024-01-16T07:27:08;97432.19;;;-1.20;71.42
35694;BME280;21812;55.536;37.664;2024-01-16T07:29:34;97420.22;;;-1.14;70.94
35694;BME280;21812;55.536;37.664;2024-01-16T07:31:59;97424.84;;;-0.93;70.95
35694;BME280;21812;55.536;37.664;2024-01-16T07:34:25;97420.75;;;-0.95;69.95
35694;BME280;21812;55.536;37.664;2024-01-16T07:36:51;97433.00;;;-0.88;69.72
35694;BME280;21812;55.536;37.664;2024-01-16T07:39:16;97425.03;;;-0.94;70.01
35694;BME280;21812;55.536;37.664;2024-01-16T07:41:42;97414.94;;;-0.83;70.16
35694;BME280;21812;55.536;37.664;2024-01-16T07:44:08;97430.22;;;-0.63;69.64
35694;BME280;21812;55.536;37.664;2024-01-16T07:46:34;97422.00;;;-0.60;68.87
35694;BME280;21812;55.536;37.664;2024-01-16T07:49:00;97403.09;;;-0.70;68.83
35694;BME280;21812;55.536;37.664;2024-01-16T07:51:26;97435.69;;;-0.50;68.16
35694;BME280;21812;55.536;37.664;2024-01-16T07:54:05;97381.28;;;-0.71;68.24
35694;BME280;21812;55.536;37.664;2024-01-16T07:56:32;97414.06;;;-0.52;67.50
35694;BME280;21812;55.536;37.664;2024-01-16T07:58:59;97423.59;;;-0.51;67.87
35694;BME280;21812;55.536;37.664;2024-01-16T08:01:24;97424.50;;;-0.44;67.95
35694;BME280;21812;55.536;37.664;2024-01-16T08:03:50;97419.38;;;-0.37;67.53
35694;BME280;21812;55.536;37.664;2024-01-16T08:06:16;97413.94;;;-0.35;67.09
35694;BME280;21812;55.536;37.664;2024-01-16T08:08:41;97398.38;;;-0.37;66.96
35694;BME280;21812;55.536;37.664;2024-01-16T08:11:07;97401.81;;;-0.36;66.27
35694;BME280;21812;55.536;37.664;2024-01-16T08:13:33;97406.50;;;-0.47;66.92
35694;BME280;21812;55.536;37.664;2024-01-16T08:15:59;97398.94;;;-0.42;66.97
35694;BME280;21812;55.536;37.664;2024-01-16T08:18:24;97391.53;;;-0.38;66.53
35694;BME280;21812;55.536;37.664;2024-01-16T08:20:50;97389.28;;;-0.26;66.25
35694;BME280;21812;55.536;37.664;2024-01-16T08:23:15;97389.28;;;-0.26;65.69
35694;BME280;21812;55.536;37.664;2024-01-16T08:25:41;97368.63;;;-0.44;65.88
35694;BME280;21812;55.536;37.664;2024-01-16T08:28:07;97385.56;;;-0.32;66.17
35694;BME280;21812;55.536;37.664;2024-01-16T08:30:33;97399.16;;;-0.13;66.34
35694;BME280;21812;55.536;37.664;2024-01-16T08:32:58;97389.06;;;-0.02;65.73
35694;BME280;21812;55.536;37.664;2024-01-16T08:35:24;97396.19;;;0.05;64.63
35694;BME280;21812;55.536;37.664;2024-01-16T08:37:50;97391.75;;;0.05;64.30
35694;BME280;21812;55.536;37.664;2024-01-16T08:40:15;97401.44;;;0.05;64.59
35694;BME280;21812;55.536;37.664;2024-01-16T08:42:41;97388.31;;;0.05;64.51
35694;BME280;21812;55.536;37.664;2024-01-16T08:45:07;97375.94;;;-0.02;64.29
35694;BME280;21812;55.536;37.664;2024-01-16T08:47:33;97387.22;;;-0.01;64.63
35694;BME280;21812;55.536;37.664;2024-01-16T08:49:59;97401.28;;;0.06;64.34
35694;BME280;21812;55.536;37.664;2024-01-16T08:52:24;97386.97;;;0.09;64.43
35694;BME280;21812;55.536;37.664;2024-01-16T08:54:50;97387.16;;;0.22;64.41
35694;BME280;21812;55.536;37.664;2024-01-16T08:57:15;97380.44;;;0.05;63.75
35694;BME280;21812;55.536;37.664;2024-01-16T08:59:41;97386.44;;;-0.02;64.26
35694;BME280;21812;55.536;37.664;2024-01-16T09:02:07;97372.22;;;-0.07;64.26
35694;BME280;21812;55.536;37.664;2024-01-16T09:04:33;97372.38;;;-0.09;64.15
35694;BME280;21812;55.536;37.664;2024-01-16T09:06:59;97378.72;;;-0.18;64.72
35694;BME280;21812;55.536;37.664;2024-01-16T09:09:25;97376.53;;;-0.14;64.61
35694;BME280;21812;55.536;37.664;2024-01-16T09:11:51;97369.84;;;-0.32;64.41
35694;BME280;21812;55.536;37.664;2024-01-16T09:14:17;97330.81;;;-0.50;64.38
35694;BME280;21812;55.536;37.664;2024-01-16T09:16:42;97361.16;;;-0.32;64.48
35694;BME280;21812;55.536;37.664;2024-01-16T09:19:08;97358.97;;;-0.44;65.14
35694;BME280;21812;55.536;37.664;2024-01-16T09:21:35;97355.81;;;-0.24;65.26
35694;BME280;21812;55.536;37.664;2024-01-16T09:24:00;97365.31;;;-0.08;64.54
35694;BME280;21812;55.536;37.664;2024-01-16T09:26:26;97355.00;;;-0.10;64.37
35694;BME280;21812;55.536;37.664;2024-01-16T09:28:52;97362.69;;;-0.08;64.29
35694;BME280;21812;55.536;37.664;2024-01-16T09:31:17;97361.59;;;-0.14;64.04
35694;BME280;21812;55.536;37.664;2024-01-16T09:33:43;97353.84;;;-0.22;64.29
35694;BME280;21812;55.536;37.664;2024-01-16T09:36:09;97359.28;;;-0.09;64.64
35694;BME280;21812;55.536;37.664;2024-01-16T09:38:37;97360.09;;;0.07;63.80
35694;BME280;21812;55.536;37.664;2024-01-16T09:41:03;97350.56;;;0.06;63.91
35694;BME280;21812;55.536;37.664;2024-01-16T09:43:31;97343.09;;;0.03;63.59
35694;BME280;21812;55.536;37.664;2024-01-16T09:46:00;97330.88;;;-0.05;63.63
35694;BME280;21812;55.536;37.664;2024-01-16T09:48:28;97319.75;;;-0.07;63.93
35694;BME280;21812;55.536;37.664;2024-01-16T09:50:54;97317.13;;;0.08;63.44
35694;BME280;21812;55.536;37.664;2024-01-16T09:53:20;97340.16;;;0.42;62.97
35694;BME280;21812;55.536;37.664;2024-01-16T09:55:47;97325.13;;;0.36;62.40
35694;BME280;21812;55.536;37.664;2024-01-16T09:58:17;97299.72;;;0.07;62.76
35694;BME280;21812;55.536;37.664;2024-01-16T10:00:44;97337.16;;;0.30;63.06
35694;BME280;21812;55.536;37.664;2024-01-16T10:03:12;97337.56;;;0.27;63.14
35694;BME280;21812;55.536;37.664;2024-01-16T10:05:42;97328.78;;;0.20;63.38
35694;BME280;21812;55.536;37.664;2024-01-16T10:08:08;97331.84;;;0.09;63.65
35694;BME280;21812;55.536;37.664;2024-01-16T10:10:34;97330.88;;;0.10;63.88
35694;BME280;21812;55.536;37.664;2024-01-16T10:13:00;97329.69;;;0.12;63.65
35694;BME280;21812;55.536;37.664;2024-01-16T10:15:26;97326.16;;;0.20;63.62
35694;BME280;21812;55.536;37.664;2024-01-16T10:17:52;97325.78;;;0.23;63.45
35694;BME280;21812;55.536;37.664;2024-01-16T10:20:31;97326.88;;;0.14;64.15
35694;BME280;21812;55.536;37.664;2024-01-16T10:22:57;97331.50;;;0.12;63.98
35694;BME280;21812;55.536;37.664;2024-01-16T10:25:24;97330.69;;;-0.04;63.71
35694;BME280;21812;55.536;37.664;2024-01-16T10:28:03;97329.06;;;-0.05;64.38
35694;BME280;21812;55.536;37.664;2024-01-16T10:30:29;97309.16;;;-0.14;64.41
35694;BME280;21812;55.536;37.664;2024-01-16T10:32:55;97321.47;;;0.01;63.87
35694;BME280;21812;55.536;37.664;2024-01-16T10:35:23;97317.94;;;0.08;63.65
35694;BME280;21812;55.536;37.664;2024-01-16T10:37:50;97292.25;;;-0.11;63.85
35694;BME280;21812;55.536;37.664;2024-01-16T10:40:17;97319.75;;;-0.07;64.35
35694;BME280;21812;55.536;37.664;2024-01-16T10:42:44;97314.56;;;-0.01;64.21
35694;BME280;21812;55.536;37.664;2024-01-16T10:45:18;97308.59;;;0.06;63.79
35694;BME280;21812;55.536;37.664;2024-01-16T10:47:45;97282.66;;;-0.19;64.01
35694;BME280;21812;55.536;37.664;2024-01-16T10:50:12;97302.19;;;-0.22;64.27
35694;BME280;21812;55.536;37.664;2024-01-16T10:52:47;97272.78;;;-0.47;64.46
35694;BME280;21812;55.536;37.664;2024-01-16T10:55:20;97291.88;;;-0.08;64.62
35694;BME280;21812;55.536;37.664;2024-01-16T10:57:48;97288.34;;;-0.01;64.24
35694;BME280;21812;55.536;37.664;2024-01-16T11:00:18;97236.09;;;-0.32;63.72
35694;BME280;21812;55.536;37.664;2024-01-16T11:05:24;97277.94;;;0.06;64.01
35694;BME280;21812;55.536;37.664;2024-01-16T11:07:54;97236.06;;;-0.17;63.40
35694;BME280;21812;55.536;37.664;2024-01-16T11:10:21;97284.44;;;0.10;63.62
35694;BME280;21812;55.536;37.664;2024-01-16T11:12:47;97286.22;;;0.25;63.24
35694;BME280;21812;55.536;37.664;2024-01-16T11:15:15;97283.34;;;0.19;63.19
35694;BME280;21812;55.536;37.664;2024-01-16T11:17:44;97272.13;;;-0.04;63.63
35694;BME280;21812;55.536;37.664;2024-01-16T11:20:11;97280.13;;;-0.12;64.42
35694;BME280;21812;55.536;37.664;2024-01-16T11:22:40;97287.81;;;-0.11;64.17
35694;BME280;21812;55.536;37.664;2024-01-16T11:25:11;97280.56;;;-0.09;64.66
35694;BME280;21812;55.536;37.664;2024-01-16T11:27:40;97278.94;;;-0.10;64.73
35694;BME280;21812;55.536;37.664;2024-01-16T11:30:07;97272.75;;;-0.02;64.60
35694;BME280;21812;55.536;37.664;2024-01-16T11:32:42;97269.91;;;-0.22;64.62
35694;BME280;21812;55.536;37.664;2024-01-16T11:35:09;97270.06;;;-0.38;65.14
35694;BME280;21812;55.536;37.664;2024-01-16T11:37:41;97247.09;;;-0.66;65.66
35694;BME280;21812;55.536;37.664;2024-01-16T11:42:51;97265.38;;;-0.28;65.04
35694;BME280;21812;55.536;37.664;2024-01-16T11:48:08;97256.88;;;-0.30;65.24
35694;BME280;21812;55.536;37.664;2024-01-16T11:50:37;97238.16;;;-0.42;65.13
35694;BME280;21812;55.536;37.664;2024-01-16T11:53:03;97255.53;;;-0.41;65.15
35694;BME280;21812;55.536;37.664;2024-01-16T11:55:34;97264.13;;;-0.47;65.41
35694;BME280;21812;55.536;37.664;2024-01-16T11:58:25;97254.25;;;-0.45;65.89
35694;BME280;21812;55.536;37.664;2024-01-16T12:00:57;97253.25;;;-0.59;65.91
35694;BME280;21812;55.536;37.664;2024-01-16T12:03:23;97252.44;;;-0.45;65.94
35694;BME280;21812;55.536;37.664;2024-01-16T12:05:59;97260.31;;;-0.45;65.57
35694;BME280;21812;55.536;37.664;2024-01-16T12:08:25;97253.59;;;-0.62;65.63
35694;BME280;21812;55.536;37.664;2024-01-16T12:10:51;97256.50;;;-0.72;66.11
35694;BME280;21812;55.536;37.664;2024-01-16T12:13:17;97246.25;;;-0.67;66.21
35694;BME280;21812;55.536;37.664;2024-01-16T12:15:43;97249.34;;;-0.63;66.58
35694;BME280;21812;55.536;37.664;2024-01-16T12:18:09;97242.66;;;-0.66;66.00
35694;BME280;21812;55.536;37.664;2024-01-16T12:20:36;97245.81;;;-0.55;65.86
35694;BME280;21812;55.536;37.664;2024-01-16T12:23:04;97215.66;;;-0.66;65.92
35694;BME280;21812;55.536;37.664;2024-01-16T12:25:34;97237.88;;;-0.47;66.01
35694;BME280;21812;55.536;37.664;2024-01-16T12:28:01;97227.31;;;-0.54;65.68
35694;BME280;21812;55.536;37.664;2024-01-16T12:30:29;97241.03;;;-0.52;66.10
35694;BME280;21812;55.536;37.664;2024-01-16T12:35:39;97227.41;;;-0.47;66.27
35694;BME280;21812;55.536;37.664;2024-01-16T12:38:06;97230.09;;;-0.55;66.14
35694;BME280;21812;55.536;37.664;2024-01-16T12:40:36;97221.88;;;-0.67;66.67
35694;BME280;21812;55.536;37.664;2024-01-16T12:43:03;97224.97;;;-0.49;66.31
35694;BME280;21812;55.536;37.664;2024-01-16T12:45:30;97228.66;;;-0.43;66.07
35694;BME280;21812;55.536;37.664;2024-01-16T12:47:57;97214.72;;;-0.29;66.00
35694;BME280;21812;55.536;37.664;2024-01-16T12:50:28;97209.56;;;-0.22;65.09
35694;BME280;21812;55.536;37.664;2024-01-16T12:55:35;97173.88;;;-0.53;64.88
35694;BME280;21812;55.536;37.664;2024-01-16T12:58:21;97219.06;;;-0.21;65.39
35694;BME280;21812;55.536;37.664;2024-01-16T13:00:50;97221.25;;;-0.25;65.37